Time;durP1;ratioP1;P1;durP2;ratioP2;P2;SDS_P1;SDS_P2;PMS_P1;PMS_P2;Temp;Humidity;BMP_temperature;BMP_pressure;BME280_temperature;BME280_humidity;BME280_pressure;Samples;Min_cycle;Max_cycle;Signal;HPM_P1;HPM_P2
2020/12/01 00:00:38;;;;;;;57.03;27.40;;;4.60;99.90;;;;;;5112671;28;20032;-84
2020/12/01 00:03:04;;;;;;;56.92;29.75;;;4.60;99.90;;;;;;5084100;28;20101;-85
2020/12/01 00:05:31;;;;;;;63.92;29.77;;;4.70;99.90;;;;;;5075702;28;20415;-85
2020/12/01 00:07:57;;;;;;;57.35;27.15;;;4.60;99.90;;;;;;5069851;28;20028;-85
2020/12/01 00:10:22;;;;;;;58.22;29.30;;;4.70;99.90;;;;;;5053838;28;20021;-82
2020/12/01 00:12:49;;;;;;;59.05;28.50;;;4.70;99.90;;;;;;5069622;28;20403;-82
2020/12/01 00:15:21;;;;;;;59.67;29.90;;;4.70;99.90;;;;;;5052663;28;20021;-85
2020/12/01 00:17:48;;;;;;;58.38;27.67;;;4.70;99.90;;;;;;5043230;28;20068;-85
2020/12/01 00:20:16;;;;;;;61.08;29.40;;;4.70;99.90;;;;;;5054961;28;20475;-86
2020/12/01 00:22:42;;;;;;;61.03;30.58;;;4.70;99.90;;;;;;5045658;28;20479;-85
2020/12/01 00:25:09;;;;;;;63.28;30.60;;;4.80;99.90;;;;;;5031065;28;20041;-86
2020/12/01 00:27:34;;;;;;;67.63;29.30;;;4.70;99.90;;;;;;5030691;28;20128;-86
2020/12/01 00:30:01;;;;;;;61.90;30.23;;;4.80;99.90;;;;;;5052497;28;20170;-86
2020/12/01 00:32:26;;;;;;;63.50;29.98;;;4.70;99.90;;;;;;5067544;28;20040;-86
2020/12/01 00:34:52;;;;;;;55.50;28.38;;;4.80;99.90;;;;;;5053805;28;20049;-86
2020/12/01 00:37:17;;;;;;;70.50;32.13;;;4.80;99.90;;;;;;5041410;28;20061;-85
2020/12/01 00:39:43;;;;;;;60.30;29.58;;;4.80;99.90;;;;;;5056874;28;20037;-85
2020/12/01 00:42:09;;;;;;;74.07;33.53;;;4.80;99.90;;;;;;5039834;28;20116;-85
2020/12/01 00:44:34;;;;;;;71.30;33.97;;;4.90;99.90;;;;;;5050636;28;20056;-86
2020/12/01 00:47:00;;;;;;;69.32;32.33;;;4.80;99.90;;;;;;5071137;28;20020;-86
2020/12/01 00:49:26;;;;;;;77.55;34.70;;;4.80;99.90;;;;;;5092820;28;20058;-86
2020/12/01 00:51:52;;;;;;;77.32;33.53;;;4.90;99.90;;;;;;5078024;28;20055;-86
2020/12/01 00:54:17;;;;;;;69.40;33.97;;;4.90;99.90;;;;;;5076821;28;20032;-84
2020/12/01 00:56:43;;;;;;;68.78;35.58;;;4.90;99.90;;;;;;5072350;28;20088;-83
2020/12/01 00:59:09;;;;;;;65.28;32.97;;;4.90;99.90;;;;;;5058793;28;20113;-83
2020/12/01 01:01:35;;;;;;;68.05;34.88;;;4.90;99.90;;;;;;5057755;28;20021;-85
2020/12/01 01:04:01;;;;;;;69.22;34.15;;;4.90;99.90;;;;;;5058026;28;20040;-85
2020/12/01 01:06:27;;;;;;;79.50;36.58;;;4.90;99.90;;;;;;5072148;28;20047;-85
2020/12/01 01:08:52;;;;;;;65.70;33.83;;;4.90;99.90;;;;;;5077455;28;20036;-85
2020/12/01 01:11:26;;;;;;;67.95;31.92;;;4.90;99.90;;;;;;5071869;28;20052;-86
2020/12/01 01:13:52;;;;;;;70.25;32.90;;;5.00;99.90;;;;;;5095955;28;20035;-85
2020/12/01 01:16:17;;;;;;;76.47;35.45;;;5.00;99.90;;;;;;5087423;28;20033;-85
2020/12/01 01:18:43;;;;;;;79.97;35.42;;;5.10;99.90;;;;;;5064474;28;20028;-86
2020/12/01 01:21:08;;;;;;;75.03;36.00;;;5.10;99.90;;;;;;5067480;28;20040;-85
2020/12/01 01:23:35;;;;;;;71.50;33.40;;;5.10;99.90;;;;;;5075178;28;20028;-85
2020/12/01 01:26:00;;;;;;;71.57;35.42;;;5.00;99.90;;;;;;5094419;28;20084;-84
2020/12/01 01:28:26;;;;;;;67.60;34.58;;;5.10;99.90;;;;;;5103983;28;20085;-84
2020/12/01 01:30:51;;;;;;;74.63;35.17;;;5.20;99.90;;;;;;5119076;28;20111;-87
2020/12/01 01:33:17;;;;;;;75.47;36.78;;;5.10;99.90;;;;;;5084426;28;20047;-86
2020/12/01 01:35:42;;;;;;;68.60;34.25;;;5.20;99.90;;;;;;5074416;28;20483;-86
2020/12/01 01:38:08;;;;;;;66.45;35.05;;;5.10;99.90;;;;;;5071767;28;20118;-85
2020/12/01 01:40:34;;;;;;;70.65;35.42;;;5.20;99.90;;;;;;5071306;28;20028;-83
2020/12/01 01:43:00;;;;;;;75.07;34.85;;;5.20;99.90;;;;;;5075120;28;20031;-84
2020/12/01 01:45:47;;;;;;;76.13;36.03;;;5.20;99.90;;;;;;5095027;28;20433;-86
2020/12/01 01:48:27;;;;;;;73.93;34.78;;;5.20;99.90;;;;;;5102038;28;20028;-86
2020/12/01 01:51:01;;;;;;;72.35;34.80;;;5.20;99.90;;;;;;5073008;28;20034;-85
2020/12/01 01:53:34;;;;;;;73.20;36.13;;;5.20;99.90;;;;;;5085111;28;20120;-86
2020/12/01 01:56:05;;;;;;;75.65;37.95;;;5.20;99.90;;;;;;5090416;28;20028;-85
2020/12/01 01:58:35;;;;;;;71.10;35.42;;;5.30;99.90;;;;;;5066010;28;20028;-85
2020/12/01 02:01:06;;;;;;;70.20;36.63;;;5.30;99.90;;;;;;5073556;28;20055;-86
2020/12/01 02:03:48;;;;;;;72.13;33.88;;;5.30;99.90;;;;;;5055716;28;20388;-86
2020/12/01 02:06:25;;;;;;;77.13;35.85;;;5.30;99.90;;;;;;5064020;28;20131;-85
2020/12/01 02:08:56;;;;;;;76.10;36.90;;;5.30;99.90;;;;;;5102154;28;20028;-86
2020/12/01 02:11:24;;;;;;;73.65;35.25;;;5.30;99.90;;;;;;5076060;28;20028;-85
2020/12/01 02:14:02;;;;;;;71.30;35.65;;;5.30;99.90;;;;;;5083046;28;20035;-85
2020/12/01 02:16:28;;;;;;;70.25;36.40;;;5.40;99.90;;;;;;5095529;28;20160;-85
2020/12/01 02:18:55;;;;;;;73.43;35.72;;;5.40;99.90;;;;;;5095804;28;20047;-85
2020/12/01 02:21:41;;;;;;;62.15;34.45;;;5.40;99.90;;;;;;5072822;28;20016;-85
2020/12/01 02:24:10;;;;;;;66.43;33.70;;;5.40;99.90;;;;;;5070664;28;20055;-85
2020/12/01 02:26:37;;;;;;;66.97;34.63;;;5.40;99.90;;;;;;5071152;28;20027;-85
2020/12/01 02:29:12;;;;;;;65.68;34.70;;;5.40;99.90;;;;;;5085010;28;20030;-84
2020/12/01 02:31:38;;;;;;;70.88;33.00;;;5.40;99.90;;;;;;5095167;28;20032;-85
2020/12/01 02:34:10;;;;;;;62.05;33.03;;;5.40;99.90;;;;;;5094663;28;20043;-85
2020/12/01 02:36:36;;;;;;;73.88;35.13;;;5.40;99.90;;;;;;5071693;28;20035;-85
2020/12/01 02:39:05;;;;;;;63.28;33.78;;;5.40;99.90;;;;;;5070674;28;20032;-85
2020/12/01 02:41:30;;;;;;;65.95;34.08;;;5.50;99.90;;;;;;5071754;28;20037;-85
2020/12/01 02:43:57;;;;;;;63.47;32.97;;;5.40;99.90;;;;;;5082086;28;20043;-85
2020/12/01 02:46:23;;;;;;;66.72;35.85;;;5.50;99.90;;;;;;5094108;28;20077;-86
2020/12/01 02:48:48;;;;;;;58.15;32.58;;;5.50;99.90;;;;;;5076614;28;20024;-84
2020/12/01 02:51:15;;;;;;;59.10;30.73;;;5.50;99.90;;;;;;5071099;28;20024;-85
2020/12/01 02:53:41;;;;;;;63.83;31.85;;;5.50;99.90;;;;;;5070689;28;20082;-85
2020/12/01 02:56:06;;;;;;;56.33;29.90;;;5.50;99.90;;;;;;5067424;28;20032;-85
2020/12/01 02:58:32;;;;;;;63.70;31.52;;;5.50;99.90;;;;;;5066425;28;20032;-85
2020/12/01 03:00:57;;;;;;;57.10;29.52;;;5.50;99.90;;;;;;5069592;28;20405;-85
2020/12/01 03:03:23;;;;;;;54.70;30.65;;;5.60;99.90;;;;;;5040485;28;20060;-85
2020/12/01 03:05:48;;;;;;;52.72;29.05;;;5.60;99.90;;;;;;5063497;28;20028;-85
2020/12/01 03:08:14;;;;;;;58.95;29.23;;;5.60;99.90;;;;;;5067908;28;20043;-85
2020/12/01 03:10:39;;;;;;;54.22;30.52;;;5.60;99.90;;;;;;5047340;28;20040;-85
2020/12/01 03:13:05;;;;;;;56.30;30.08;;;5.60;99.90;;;;;;5050486;28;20028;-85
2020/12/01 03:15:30;;;;;;;59.35;30.30;;;5.60;99.90;;;;;;5052500;28;20048;-85
2020/12/01 03:17:56;;;;;;;59.92;31.90;;;5.60;99.90;;;;;;5060907;28;20099;-85
2020/12/01 03:20:21;;;;;;;54.58;29.58;;;5.60;99.90;;;;;;5051841;28;20016;-85
2020/12/01 03:22:47;;;;;;;54.92;29.80;;;5.60;99.90;;;;;;5068188;28;20488;-85
2020/12/01 03:25:13;;;;;;;56.53;28.40;;;5.60;99.90;;;;;;5049268;28;20136;-84
2020/12/01 03:27:38;;;;;;;55.45;29.67;;;5.60;99.90;;;;;;5064808;28;20494;-85
2020/12/01 03:30:05;;;;;;;53.53;28.92;;;5.70;99.90;;;;;;5073074;28;20119;-85
2020/12/01 03:32:31;;;;;;;56.63;29.23;;;5.70;99.90;;;;;;5072492;28;20020;-85
2020/12/01 03:34:57;;;;;;;51.92;27.83;;;5.70;99.90;;;;;;5078331;28;20052;-85
2020/12/01 03:37:22;;;;;;;46.63;25.98;;;5.70;99.90;;;;;;5073947;28;20016;-85
2020/12/01 03:39:48;;;;;;;55.97;27.88;;;5.70;99.90;;;;;;5070679;28;20032;-85
2020/12/01 03:42:13;;;;;;;48.67;26.90;;;5.70;99.90;;;;;;5088408;28;20365;-85
2020/12/01 03:44:39;;;;;;;46.08;25.95;;;5.70;99.90;;;;;;5087741;28;20024;-84
2020/12/01 03:47:04;;;;;;;47.92;26.77;;;5.70;99.90;;;;;;5090880;28;20428;-84
2020/12/01 03:49:30;;;;;;;48.70;27.17;;;5.70;99.90;;;;;;5066281;28;20051;-85
2020/12/01 03:51:56;;;;;;;45.83;26.48;;;5.70;99.90;;;;;;5071681;28;20488;-85
2020/12/01 03:54:21;;;;;;;43.45;25.48;;;5.70;99.90;;;;;;5069263;28;20032;-85
2020/12/01 03:56:47;;;;;;;46.13;26.13;;;5.70;99.90;;;;;;5071124;28;20024;-85
2020/12/01 03:59:12;;;;;;;49.85;26.20;;;5.70;99.90;;;;;;5083945;28;20024;-85
2020/12/01 04:01:38;;;;;;;48.13;26.65;;;5.70;99.90;;;;;;5092897;28;20059;-84
2020/12/01 04:04:03;;;;;;;43.35;24.85;;;5.60;99.90;;;;;;5071083;28;20037;-84
2020/12/01 04:06:29;;;;;;;56.22;26.02;;;5.70;99.90;;;;;;5072101;28;20029;-84
2020/12/01 04:08:54;;;;;;;42.05;25.33;;;5.70;99.90;;;;;;5070625;28;20468;-85
2020/12/01 04:11:20;;;;;;;43.72;24.67;;;5.70;99.90;;;;;;5068282;28;20016;-85
2020/12/01 04:13:45;;;;;;;43.65;24.88;;;5.70;99.90;;;;;;5079745;28;20474;-85
2020/12/01 04:16:13;;;;;;;46.10;25.50;;;5.70;99.90;;;;;;5093464;28;20048;-85
2020/12/01 04:18:39;;;;;;;51.00;28.05;;;5.70;99.90;;;;;;5096297;28;20042;-84
2020/12/01 04:21:04;;;;;;;42.50;24.92;;;5.70;99.90;;;;;;5071010;28;20024;-85
2020/12/01 04:23:30;;;;;;;47.03;27.42;;;5.70;99.90;;;;;;5068581;28;20055;-85
2020/12/01 04:25:55;;;;;;;42.80;25.67;;;5.70;99.90;;;;;;5087851;28;20468;-85
2020/12/01 04:28:21;;;;;;;47.03;26.23;;;5.70;99.90;;;;;;5075373;28;20042;-85
2020/12/01 04:30:46;;;;;;;49.13;27.63;;;5.70;99.90;;;;;;5092642;28;20057;-84
2020/12/01 04:33:12;;;;;;;47.22;25.95;;;5.70;99.90;;;;;;5087928;28;20063;-85
2020/12/01 04:35:38;;;;;;;46.97;25.55;;;5.70;99.90;;;;;;5084273;28;20027;-85
2020/12/01 04:38:06;;;;;;;49.15;26.15;;;5.70;99.90;;;;;;5071526;28;20036;-85
2020/12/01 04:40:35;;;;;;;50.20;27.38;;;5.70;99.90;;;;;;5087049;28;20128;-85
2020/12/01 04:43:10;;;;;;;54.03;25.52;;;5.70;99.90;;;;;;5052070;28;20028;-85
2020/12/01 04:45:36;;;;;;;53.33;27.52;;;5.70;99.90;;;;;;5111354;28;20019;-86
2020/12/01 04:48:13;;;;;;;51.08;26.15;;;5.70;99.90;;;;;;5083160;28;20034;-84
2020/12/01 04:50:46;;;;;;;49.00;27.58;;;5.70;99.90;;;;;;5089371;28;20500;-85
2020/12/01 04:53:37;;;;;;;44.58;25.17;;;5.70;99.90;;;;;;5088006;28;20030;-85
2020/12/01 04:56:38;;;;;;;54.28;26.63;;;5.70;99.90;;;;;;5084216;28;20042;-84
2020/12/01 04:59:36;;;;;;;45.90;25.05;;;5.80;99.90;;;;;;5071710;28;20032;-85
2020/12/01 05:02:41;;;;;;;50.95;27.35;;;5.80;99.90;;;;;;5071868;28;20040;-85
2020/12/01 05:05:35;;;;;;;53.25;28.85;;;5.80;99.90;;;;;;5089860;28;20047;-85
2020/12/01 05:08:21;;;;;;;53.35;28.83;;;5.80;99.90;;;;;;5070597;28;20028;-86
2020/12/01 05:10:49;;;;;;;52.15;27.05;;;5.80;99.90;;;;;;5066369;28;20016;-85
2020/12/01 05:13:18;;;;;;;59.63;29.38;;;5.90;99.90;;;;;;5070719;28;20032;-85
2020/12/01 05:15:49;;;;;;;54.42;28.95;;;5.90;99.90;;;;;;5072838;28;20495;-85
2020/12/01 05:18:20;;;;;;;53.88;28.33;;;5.90;99.90;;;;;;5073873;28;20056;-85
2020/12/01 05:20:48;;;;;;;;;;;5.90;99.90;;;;;;5092110;28;20024;-85
2020/12/01 05:23:17;;;;;;;57.13;28.45;;;5.90;99.90;;;;;;5072056;28;19919;-85
2020/12/01 05:25:44;;;;;;;47.05;26.50;;;6.00;99.90;;;;;;5073172;28;20535;-84
2020/12/01 05:28:13;;;;;;;54.35;28.45;;;5.90;99.90;;;;;;5048225;28;20062;-84
2020/12/01 05:30:41;;;;;;;58.30;28.70;;;6.00;99.90;;;;;;5067154;28;20059;-84
2020/12/01 05:33:23;;;;;;;52.00;29.15;;;6.00;99.90;;;;;;5075184;28;20074;-84
2020/12/01 05:36:15;;;;;;;49.75;24.98;;;6.00;99.90;;;;;;5070023;28;20024;-84
2020/12/01 05:38:41;;;;;;;49.05;26.63;;;6.10;99.90;;;;;;5069528;28;20396;-84
2020/12/01 05:41:21;;;;;;;57.78;26.88;;;6.00;99.90;;;;;;5068985;28;20028;-84
2020/12/01 05:43:59;;;;;;;53.83;27.95;;;6.10;99.90;;;;;;5073299;28;20035;-84
2020/12/01 05:46:33;;;;;;;52.85;27.27;;;6.10;99.90;;;;;;5070504;28;20372;-84
2020/12/01 05:48:59;;;;;;;57.95;28.17;;;6.10;99.90;;;;;;5090764;28;20479;-84
2020/12/01 05:51:43;;;;;;;52.72;28.55;;;6.10;99.90;;;;;;5091360;28;20035;-85
2020/12/01 05:54:15;;;;;;;53.78;26.58;;;6.10;99.90;;;;;;5050459;28;20584;-85
2020/12/01 05:56:47;;;;;;;48.88;25.35;;;6.10;99.90;;;;;;5070570;28;20376;-84
2020/12/01 05:59:16;;;;;;;52.97;26.58;;;6.10;99.90;;;;;;5068270;28;20020;-84
2020/12/01 06:01:48;;;;;;;51.60;27.35;;;6.10;99.90;;;;;;5068011;28;20034;-85
2020/12/01 06:04:27;;;;;;;67.25;29.88;;;6.10;99.90;;;;;;5071824;28;20039;-85
2020/12/01 06:07:19;;;;;;;56.42;27.58;;;6.10;99.90;;;;;;5090510;28;20035;-86
2020/12/01 06:10:00;;;;;;;57.80;30.45;;;6.10;99.90;;;;;;5072372;28;20047;-85
2020/12/01 06:12:32;;;;;;;52.17;27.42;;;6.10;99.90;;;;;;5068423;28;20032;-85
2020/12/01 06:15:04;;;;;;;61.97;26.70;;;6.10;99.90;;;;;;5087949;28;20043;-84
2020/12/01 06:17:41;;;;;;;55.53;27.02;;;6.10;99.90;;;;;;5083181;28;20028;-84
2020/12/01 06:20:38;;;;;;;58.63;27.70;;;6.10;99.90;;;;;;5088977;28;20027;-84
2020/12/01 06:23:49;;;;;;;57.40;28.20;;;6.20;99.90;;;;;;5067982;28;20028;-84
2020/12/01 06:26:53;;;;;;;54.90;27.50;;;6.20;99.90;;;;;;5069200;28;20556;-84
2020/12/01 06:29:53;;;;;;;65.20;30.25;;;6.20;99.90;;;;;;5069818;28;20495;-84
2020/12/01 06:32:30;;;;;;;70.32;31.42;;;6.20;99.90;;;;;;5069468;28;20024;-84
2020/12/01 06:35:05;;;;;;;62.83;30.45;;;6.20;99.90;;;;;;5071713;28;20036;-84
2020/12/01 06:37:57;;;;;;;68.55;31.15;;;6.30;99.90;;;;;;5074545;28;20028;-85
2020/12/01 06:40:45;;;;;;;62.88;29.50;;;6.30;99.90;;;;;;5050982;28;20029;-83
2020/12/01 06:43:33;;;;;;;61.20;30.00;;;6.30;99.90;;;;;;5031669;28;20136;-83
2020/12/01 06:45:59;;;;;;;65.57;32.47;;;6.30;99.90;;;;;;5028508;28;20041;-83
2020/12/01 06:48:28;;;;;;;64.32;31.98;;;6.30;99.90;;;;;;5032388;28;20025;-84
2020/12/01 06:50:58;;;;;;;65.75;31.48;;;6.30;99.90;;;;;;5037162;28;20025;-84
2020/12/01 06:53:31;;;;;;;75.38;32.10;;;6.30;99.90;;;;;;5028824;28;20032;-84
2020/12/01 06:55:59;;;;;;;70.43;32.58;;;6.30;99.90;;;;;;5030590;28;20160;-83
2020/12/01 06:58:24;;;;;;;97.90;44.90;;;6.30;99.90;;;;;;5029546;28;20044;-84
2020/12/01 07:01:17;;;;;;;70.22;32.00;;;6.40;99.90;;;;;;5030648;28;20418;-84
2020/12/01 07:03:47;;;;;;;62.10;31.30;;;6.40;99.90;;;;;;5031589;28;20036;-83
2020/12/01 07:06:18;;;;;;;67.15;32.47;;;6.40;99.90;;;;;;5032138;28;20056;-84
2020/12/01 07:08:44;;;;;;;61.72;32.00;;;6.40;99.90;;;;;;5031090;28;20136;-83
2020/12/01 07:11:28;;;;;;;70.72;31.77;;;6.40;99.90;;;;;;5050052;28;20025;-84
2020/12/01 07:14:00;;;;;;;61.25;31.70;;;6.40;99.90;;;;;;5034600;28;20033;-84
2020/12/01 07:16:46;;;;;;;63.50;29.90;;;6.40;99.90;;;;;;5039740;28;20021;-86
2020/12/01 07:19:21;;;;;;;78.50;35.55;;;6.40;99.90;;;;;;5078502;28;20396;-85
2020/12/01 07:22:20;;;;;;;70.38;33.58;;;6.40;99.90;;;;;;5075783;28;20031;-84
2020/12/01 07:25:34;;;;;;;73.50;32.28;;;6.40;99.90;;;;;;5077422;28;20094;-84
2020/12/01 07:28:18;;;;;;;66.28;32.28;;;6.40;99.90;;;;;;5096249;28;20032;-84
2020/12/01 07:30:55;;;;;;;69.72;33.33;;;6.40;99.90;;;;;;5067074;28;20749;-84
2020/12/01 07:33:32;;;;;;;67.47;33.22;;;6.40;99.90;;;;;;5067589;28;20148;-84
2020/12/01 07:36:20;;;;;;;66.95;32.60;;;6.30;99.90;;;;;;5064889;28;20028;-84
2020/12/01 07:38:48;;;;;;;69.63;33.42;;;6.40;99.90;;;;;;5075736;28;20043;-84
2020/12/01 07:41:27;;;;;;;79.72;33.47;;;6.40;99.90;;;;;;5044019;28;20939;-85
2020/12/01 07:44:14;;;;;;;80.72;35.17;;;6.50;99.90;;;;;;5070049;28;20099;-85
2020/12/01 07:49:17;;;;;;;80.30;33.47;;;6.40;99.90;;;;;;5089592;28;20028;-84
2020/12/01 07:51:44;;;;;;;84.50;34.22;;;6.50;99.90;;;;;;5074516;28;20045;-84
2020/12/01 07:54:20;;;;;;;76.03;33.65;;;6.50;99.90;;;;;;5062662;28;20133;-84
2020/12/01 07:56:45;;;;;;;88.85;37.53;;;6.50;99.90;;;;;;5060769;28;20022;-84
2020/12/01 07:59:15;;;;;;;80.18;34.70;;;6.50;99.90;;;;;;5059608;28;20134;-85
2020/12/01 08:01:42;;;;;;;74.32;34.70;;;6.60;99.90;;;;;;5062558;28;20143;-84
2020/12/01 08:04:19;;;;;;;120.82;43.25;;;6.50;99.90;;;;;;5059405;28;20028;-84
2020/12/01 08:06:58;;;;;;;75.68;33.70;;;6.60;99.90;;;;;;5063230;28;20618;-84
2020/12/01 08:09:24;;;;;;;81.88;35.58;;;6.60;99.90;;;;;;5061499;28;20036;-84
2020/12/01 08:11:54;;;;;;;79.57;37.05;;;6.70;99.90;;;;;;5081209;28;21188;-86
2020/12/01 08:14:19;;;;;;;89.43;37.03;;;6.60;99.90;;;;;;5065297;28;20035;-85
2020/12/01 08:17:25;;;;;;;84.15;38.03;;;6.70;99.90;;;;;;5080397;28;20065;-85
2020/12/01 08:19:53;;;;;;;88.65;37.53;;;6.80;99.90;;;;;;5019531;28;20068;-84
2020/12/01 08:22:23;;;;;;;97.15;38.25;;;6.70;99.90;;;;;;5001782;28;20069;-85
2020/12/01 08:24:56;;;;;;;81.10;37.30;;;6.70;99.90;;;;;;4989288;28;20447;-85
2020/12/01 08:27:26;;;;;;;74.03;32.20;;;6.70;99.90;;;;;;5002360;28;20048;-87
2020/12/01 08:29:55;;;;;;;77.78;33.15;;;6.70;99.90;;;;;;5000479;28;20058;-87
2020/12/01 08:32:34;;;;;;;80.90;34.35;;;6.80;99.90;;;;;;5013219;28;20042;-86
2020/12/01 08:35:19;;;;;;;76.85;34.83;;;6.80;99.90;;;;;;5020645;28;20039;-87
2020/12/01 08:38:14;;;;;;;80.97;36.63;;;6.80;99.90;;;;;;4990817;28;20045;-87
2020/12/01 08:40:58;;;;;;;88.20;35.75;;;6.80;99.90;;;;;;5022590;28;20434;-86
2020/12/01 08:44:08;;;;;;;75.88;34.00;;;6.90;99.90;;;;;;5021357;28;20482;-86
2020/12/01 08:46:40;;;;;;;84.38;33.65;;;6.90;99.90;;;;;;4967847;28;20066;-85
2020/12/01 08:49:23;;;;;;;78.20;34.42;;;6.90;99.90;;;;;;4987197;28;20073;-86
2020/12/01 08:51:58;;;;;;;73.10;31.55;;;6.90;99.90;;;;;;4974739;28;20422;-87
2020/12/01 08:54:28;;;;;;;78.22;34.03;;;6.90;99.90;;;;;;4973489;28;20035;-87
2020/12/01 08:57:08;;;;;;;89.30;34.45;;;6.80;99.90;;;;;;4994373;28;20061;-87
2020/12/01 08:59:46;;;;;;;85.25;35.40;;;6.90;99.90;;;;;;5025599;28;20056;-88
2020/12/01 09:02:14;;;;;;;91.60;36.17;;;6.90;99.90;;;;;;5007383;28;20034;-87
2020/12/01 09:04:43;;;;;;;85.45;35.53;;;6.90;99.90;;;;;;5016855;28;20038;-88
2020/12/01 09:07:14;;;;;;;87.70;34.10;;;7.00;99.90;;;;;;5007837;28;20030;-88
2020/12/01 09:09:40;;;;;;;;;;;7.00;99.90;;;;;;5018965;28;20065;-86
2020/12/01 09:12:48;;;;;;;85.93;35.90;;;7.00;99.90;;;;;;5015318;28;19909;-87
2020/12/01 09:24:02;;;;;;;114.25;45.88;;;7.10;99.90;;;;;;5026850;28;20145;-87
2020/12/01 09:26:28;;;;;;;100.85;36.08;;;7.20;99.90;;;;;;5043240;28;20055;-86
2020/12/01 09:28:55;;;;;;;104.18;38.13;;;7.20;99.90;;;;;;5041664;28;20088;-85
2020/12/01 09:31:24;;;;;;;91.53;35.05;;;7.20;99.90;;;;;;5054405;28;20068;-87
2020/12/01 09:33:53;;;;;;;103.88;37.85;;;7.20;99.90;;;;;;5036475;28;20056;-86
2020/12/01 09:36:23;;;;;;;102.65;36.58;;;7.20;99.90;;;;;;5040215;28;20022;-87
2020/12/01 09:38:49;;;;;;;113.00;37.15;;;7.20;99.90;;;;;;5019270;28;20033;-86
2020/12/01 09:41:17;;;;;;;114.05;36.70;;;7.20;99.90;;;;;;5034624;28;20057;-86
2020/12/01 09:44:03;;;;;;;82.38;34.45;;;7.20;99.90;;;;;;5028056;28;20132;-86
2020/12/01 09:47:14;;;;;;;123.38;37.80;;;7.10;99.90;;;;;;5027866;28;20048;-86
2020/12/01 09:49:17;;;;;;;97.45;35.38;;;7.00;99.90;;;;;;5027119;28;20499;-86
2020/12/01 09:51:52;;;;;;;92.60;32.92;;;7.10;99.90;;;;;;4985328;28;20128;-86
2020/12/01 09:54:27;;;;;;;92.07;37.15;;;7.00;99.90;;;;;;5031836;28;20087;-86
2020/12/01 09:57:06;;;;;;;83.35;35.50;;;7.00;99.90;;;;;;5039482;28;20260;-86
2020/12/01 09:59:43;;;;;;;91.57;36.85;;;7.00;99.90;;;;;;5027170;28;20118;-87
2020/12/01 10:10:29;;;;;;;89.20;33.47;;;7.10;99.90;;;;;;5043527;28;20405;-86
2020/12/01 10:36:39;;;;;;;72.72;26.48;;;6.90;99.90;;;;;;4980080;28;20042;-86
2020/12/01 10:39:06;;;;;;;54.60;27.83;;;6.90;99.90;;;;;;4967073;28;20073;-85
2020/12/01 10:41:33;;;;;;;59.75;26.52;;;6.90;99.90;;;;;;4986709;28;20086;-85
2020/12/01 10:44:00;;;;;;;64.05;28.13;;;6.90;99.90;;;;;;4969367;28;20172;-86
2020/12/01 10:46:27;;;;;;;63.00;27.15;;;7.00;99.90;;;;;;4967880;28;20058;-86
2020/12/01 10:48:53;;;;;;;57.22;25.70;;;7.00;99.90;;;;;;4936768;28;20121;-86
2020/12/01 10:51:19;;;;;;;56.75;25.85;;;7.00;99.90;;;;;;4986928;28;20419;-86
2020/12/01 10:53:44;;;;;;;56.35;23.77;;;7.00;99.90;;;;;;5027826;28;20043;-86
2020/12/01 10:56:10;;;;;;;50.17;22.38;;;6.90;99.90;;;;;;5065442;28;20088;-85
2020/12/01 10:58:35;;;;;;;45.22;21.05;;;7.00;99.90;;;;;;5066034;28;20036;-85
2020/12/01 11:01:01;;;;;;;51.17;21.45;;;6.90;99.90;;;;;;5076865;28;20438;-85
2020/12/01 11:03:29;;;;;;;42.83;21.63;;;7.00;99.90;;;;;;5069556;28;20089;-85
2020/12/01 11:05:54;;;;;;;49.10;22.73;;;7.00;99.90;;;;;;5047524;28;20036;-86
2020/12/01 11:08:21;;;;;;;49.67;23.02;;;7.10;99.90;;;;;;5060384;28;20115;-85
2020/12/01 11:10:49;;;;;;;39.10;20.58;;;7.10;99.90;;;;;;5054246;28;20024;-84
2020/12/01 11:13:14;;;;;;;35.25;17.25;;;7.00;99.90;;;;;;5058755;28;20044;-85
2020/12/01 11:15:40;;;;;;;34.42;16.85;;;7.10;99.90;;;;;;5066761;28;21286;-85
2020/12/01 11:18:06;;;;;;;38.35;18.10;;;7.10;99.90;;;;;;5052730;28;20028;-86
2020/12/01 11:20:33;;;;;;;29.80;16.52;;;7.00;99.90;;;;;;5055424;28;20028;-87
2020/12/01 11:22:59;;;;;;;32.50;16.75;;;7.10;99.90;;;;;;5056029;28;20065;-86
2020/12/01 11:25:25;;;;;;;29.63;15.20;;;7.10;99.90;;;;;;5065614;28;20040;-87
2020/12/01 11:27:51;;;;;;;26.63;13.55;;;7.10;99.90;;;;;;5067074;28;20036;-87
2020/12/01 11:30:19;;;;;;;17.02;10.18;;;7.10;99.90;;;;;;5069844;28;20036;-87
2020/12/01 11:32:45;;;;;;;24.00;12.45;;;7.00;99.90;;;;;;5011643;28;20049;-88
2020/12/01 11:35:11;;;;;;;24.40;11.98;;;7.00;99.90;;;;;;5002124;28;20092;-86
2020/12/01 11:37:39;;;;;;;21.85;12.10;;;7.00;99.90;;;;;;4991885;28;20108;-86
2020/12/01 11:40:06;;;;;;;21.92;12.55;;;7.00;99.90;;;;;;5029807;28;20040;-87
2020/12/01 11:42:32;;;;;;;24.10;13.23;;;6.90;99.90;;;;;;5024641;28;20025;-87
2020/12/01 11:44:58;;;;;;;28.00;13.48;;;6.90;99.90;;;;;;5022281;28;20446;-85
2020/12/01 11:47:25;;;;;;;26.50;15.77;;;6.80;99.90;;;;;;5019711;28;20021;-84
2020/12/01 11:49:52;;;;;;;23.80;13.88;;;6.80;99.90;;;;;;4968704;28;20968;-84
2020/12/01 11:52:20;;;;;;;31.08;16.35;;;6.80;99.90;;;;;;5032497;28;20076;-85
2020/12/01 11:54:45;;;;;;;32.47;17.55;;;6.80;99.90;;;;;;5006192;28;20041;-86
2020/12/01 11:57:14;;;;;;;29.55;16.60;;;6.80;99.90;;;;;;5025401;28;20025;-85
2020/12/01 11:59:40;;;;;;;26.92;14.85;;;6.80;99.90;;;;;;5000773;28;20120;-86
2020/12/01 12:02:06;;;;;;;34.92;15.43;;;6.80;99.90;;;;;;5023347;28;20025;-85
2020/12/01 12:04:32;;;;;;;29.10;16.73;;;6.70;99.90;;;;;;5050211;28;20111;-85
2020/12/01 12:06:59;;;;;;;37.42;18.48;;;6.70;99.90;;;;;;5060552;28;20321;-85
2020/12/01 12:09:27;;;;;;;31.27;17.75;;;6.80;99.90;;;;;;5047750;28;20036;-86
2020/12/01 12:11:54;;;;;;;27.83;15.60;;;6.80;99.90;;;;;;5050369;28;20032;-86
2020/12/01 12:14:21;;;;;;;29.02;16.40;;;6.70;99.90;;;;;;5063871;28;20097;-85
2020/12/01 12:16:46;;;;;;;32.47;16.50;;;6.60;99.90;;;;;;5060326;28;20162;-85
2020/12/01 12:19:13;;;;;;;35.38;17.23;;;6.60;99.90;;;;;;5095889;28;20123;-85
2020/12/01 12:21:40;;;;;;;28.83;14.73;;;6.60;99.90;;;;;;5080020;28;20028;-85
2020/12/01 12:24:06;;;;;;;32.30;18.00;;;6.60;99.90;;;;;;5077808;28;20143;-85
2020/12/01 12:26:33;;;;;;;38.63;18.92;;;6.60;99.90;;;;;;5073616;28;20044;-86
2020/12/01 12:29:00;;;;;;;37.25;18.85;;;6.50;99.90;;;;;;5062112;28;20045;-84
2020/12/01 12:31:27;;;;;;;36.08;17.92;;;6.50;99.90;;;;;;5046208;28;20041;-85
2020/12/01 12:33:53;;;;;;;32.97;16.58;;;6.50;99.90;;;;;;5070971;28;20203;-85
2020/12/01 12:36:18;;;;;;;38.17;17.95;;;6.40;99.90;;;;;;5034700;28;20048;-85
2020/12/01 12:38:44;;;;;;;37.72;17.25;;;6.40;99.90;;;;;;5037412;28;20469;-85
2020/12/01 12:41:12;;;;;;;34.00;16.33;;;6.30;99.90;;;;;;5054102;28;20421;-85
2020/12/01 12:43:38;;;;;;;36.75;16.88;;;6.20;99.90;;;;;;5020068;28;20059;-85
2020/12/01 12:46:04;;;;;;;29.38;15.27;;;6.30;99.90;;;;;;5037537;28;20050;-85
2020/12/01 12:48:30;;;;;;;34.17;16.30;;;6.30;99.90;;;;;;5052548;28;20079;-85
2020/12/01 12:50:56;;;;;;;33.42;16.73;;;6.30;99.90;;;;;;5020938;28;20433;-85
2020/12/01 12:53:24;;;;;;;36.70;17.58;;;6.30;99.90;;;;;;5036573;28;20375;-85
2020/12/01 12:55:51;;;;;;;38.03;18.50;;;6.30;99.90;;;;;;5032797;28;20559;-84
2020/12/01 12:58:20;;;;;;;35.42;18.20;;;6.20;99.90;;;;;;5030856;28;20037;-85
2020/12/01 13:00:46;;;;;;;38.50;17.77;;;6.30;99.90;;;;;;5035623;28;20037;-85
2020/12/01 13:03:12;;;;;;;31.00;16.30;;;6.20;99.90;;;;;;5037061;28;20037;-84
2020/12/01 13:05:37;;;;;;;40.00;18.08;;;6.10;99.90;;;;;;5039694;28;20082;-84
2020/12/01 13:08:05;;;;;;;39.95;19.02;;;6.10;99.90;;;;;;5034975;28;20056;-85
2020/12/01 13:10:33;;;;;;;40.17;18.70;;;6.20;99.90;;;;;;5045444;28;20097;-85
2020/12/01 13:13:00;;;;;;;40.60;17.52;;;6.10;99.90;;;;;;5013795;28;20026;-84
2020/12/01 13:15:26;;;;;;;40.60;19.10;;;6.20;99.90;;;;;;5021517;28;20033;-85
2020/12/01 13:17:53;;;;;;;39.22;19.27;;;6.20;99.90;;;;;;5050477;28;20036;-83
2020/12/01 13:20:23;;;;;;;49.50;21.25;;;6.20;99.90;;;;;;5059579;28;20155;-85
2020/12/01 13:22:54;;;;;;;54.90;21.63;;;6.20;99.90;;;;;;5052409;28;20051;-85
2020/12/01 13:25:20;;;;;;;55.70;22.95;;;6.10;99.90;;;;;;5046735;28;20086;-84
2020/12/01 13:27:46;;;;;;;78.63;30.48;;;6.10;99.90;;;;;;5040315;28;20393;-84
2020/12/01 13:30:15;;;;;;;52.85;22.00;;;6.10;99.90;;;;;;5033660;28;21594;-86
2020/12/01 13:32:41;;;;;;;50.28;23.90;;;6.10;99.90;;;;;;5041594;28;20060;-86
2020/12/01 13:35:08;;;;;;;60.50;24.08;;;6.10;99.90;;;;;;5043707;28;20559;-87
2020/12/01 13:37:34;;;;;;;47.88;20.58;;;6.10;99.90;;;;;;5045289;28;20123;-86
2020/12/01 13:40:03;;;;;;;54.53;23.77;;;6.10;99.90;;;;;;5046567;28;20052;-85